Time;durP1;ratioP1;P1;durP2;ratioP2;P2;SDS_P1;SDS_P2;PMS_P1;PMS_P2;Temp;Humidity;BMP_temperature;BMP_pressure;BME280_temperature;BME280_humidity;BME280_pressure;Samples;Min_cycle;Max_cycle;Signal;HPM_P1;HPM_P2
2023/08/25 00:01:00;;;;;;;2.85;1.67;;;24.60;65.00;;;;;;4899669;29;20473;-75
2023/08/25 00:03:26;;;;;;;2.53;1.83;;;24.60;65.00;;;;;;4900532;29;20032;-76
2023/08/25 00:05:55;;;;;;;2.33;1.90;;;24.60;65.10;;;;;;4900050;29;20428;-74
2023/08/25 00:08:21;;;;;;;1.80;1.60;;;24.50;65.10;;;;;;4899908;29;20060;-75
2023/08/25 00:10:47;;;;;;;2.08;1.80;;;24.50;65.10;;;;;;4899863;29;20390;-75
2023/08/25 00:13:14;;;;;;;1.70;1.55;;;24.50;65.10;;;;;;4900265;29;20032;-75
2023/08/25 00:15:41;;;;;;;2.90;1.67;;;24.40;65.10;;;;;;4900843;29;20053;-75
2023/08/25 00:18:07;;;;;;;2.17;1.90;;;24.40;65.10;;;;;;4915765;29;20042;-75
2023/08/25 00:20:33;;;;;;;2.55;1.50;;;24.40;65.10;;;;;;4900175;29;20129;-74
2023/08/25 00:22:58;;;;;;;1.67;1.50;;;24.40;65.20;;;;;;4906220;29;20049;-74
2023/08/25 00:25:24;;;;;;;1.98;1.63;;;24.40;65.20;;;;;;4902077;29;20040;-74
2023/08/25 00:27:50;;;;;;;3.22;2.00;;;24.40;65.20;;;;;;4914794;29;20040;-74
2023/08/25 00:30:15;;;;;;;2.38;1.70;;;24.40;65.20;;;;;;4903321;29;20036;-75
2023/08/25 00:32:41;;;;;;;2.13;1.85;;;24.40;65.30;;;;;;4903174;29;20474;-75
2023/08/25 00:35:07;;;;;;;2.00;1.70;;;24.30;65.30;;;;;;4900456;29;20470;-75
2023/08/25 00:37:33;;;;;;;2.92;2.00;;;24.30;65.30;;;;;;4900369;29;20037;-76
2023/08/25 00:39:59;;;;;;;2.58;1.92;;;24.30;65.30;;;;;;4899542;29;20553;-74
2023/08/25 00:42:25;;;;;;;2.88;2.22;;;24.30;65.40;;;;;;4884131;29;20040;-75
2023/08/25 00:44:51;;;;;;;2.70;2.25;;;24.20;65.40;;;;;;4899061;29;20036;-75
2023/08/25 00:47:18;;;;;;;2.33;1.73;;;24.20;65.40;;;;;;4899225;29;20394;-75
2023/08/25 00:49:45;;;;;;;3.05;2.00;;;24.20;65.50;;;;;;4898955;29;20041;-75
2023/08/25 00:52:11;;;;;;;3.13;2.15;;;24.20;65.50;;;;;;4900092;29;20068;-75
2023/08/25 00:54:37;;;;;;;2.17;1.80;;;24.20;65.50;;;;;;4914322;29;20044;-75
2023/08/25 00:57:04;;;;;;;2.10;1.90;;;24.20;65.50;;;;;;4898926;29;20134;-75
2023/08/25 00:59:33;;;;;;;2.50;2.08;;;24.20;65.50;;;;;;4899517;29;20068;-75
2023/08/25 01:01:59;;;;;;;2.03;1.83;;;24.10;65.50;;;;;;4901700;29;20033;-75
2023/08/25 01:04:25;;;;;;;2.13;1.80;;;24.00;65.40;;;;;;4902919;29;20060;-75
2023/08/25 01:06:50;;;;;;;2.67;1.92;;;24.00;65.50;;;;;;4898570;29;20459;-75
2023/08/25 01:09:18;;;;;;;2.42;2.03;;;24.10;65.60;;;;;;4898965;29;20040;-75
2023/08/25 01:12:09;;;;;;;2.67;2.00;;;24.00;65.60;;;;;;4900064;29;20096;-74
2023/08/25 01:15:04;;;;;;;2.38;1.90;;;24.00;65.70;;;;;;4898080;29;20028;-74
2023/08/25 01:17:50;;;;;;;2.47;2.10;;;24.00;65.70;;;;;;4898645;29;20043;-74
2023/08/25 01:20:18;;;;;;;2.08;1.88;;;24.00;65.70;;;;;;4913832;29;20055;-75
2023/08/25 01:23:07;;;;;;;2.30;1.92;;;23.90;65.70;;;;;;4899330;29;20044;-74
2023/08/25 01:25:34;;;;;;;2.35;2.00;;;23.90;65.80;;;;;;4898583;29;20036;-74
2023/08/25 01:28:03;;;;;;;3.45;2.17;;;23.80;65.70;;;;;;4898300;29;20062;-75
2023/08/25 01:30:31;;;;;;;3.22;2.30;;;23.80;65.80;;;;;;4898365;29;20096;-74
2023/08/25 01:32:59;;;;;;;2.85;2.17;;;23.80;65.80;;;;;;4899413;29;20024;-74
2023/08/25 01:35:43;;;;;;;3.17;2.30;;;23.80;65.80;;;;;;4898429;29;20488;-75
2023/08/25 01:38:49;;;;;;;3.10;2.38;;;23.80;65.90;;;;;;4899722;29;20059;-75
2023/08/25 01:41:25;;;;;;;2.25;1.85;;;23.80;66.00;;;;;;4897926;29;20039;-74
2023/08/25 01:43:53;;;;;;;2.90;2.28;;;23.80;65.90;;;;;;4898320;29;20028;-75
2023/08/25 01:46:20;;;;;;;2.83;2.30;;;23.70;65.90;;;;;;4897913;29;20029;-74
2023/08/25 01:48:48;;;;;;;3.65;2.60;;;23.70;66.00;;;;;;4898212;29;20036;-75
2023/08/25 01:51:15;;;;;;;2.88;2.33;;;23.70;66.00;;;;;;4897779;29;20088;-75
2023/08/25 01:53:44;;;;;;;2.90;2.30;;;23.60;66.00;;;;;;4899010;29;20059;-75
2023/08/25 01:56:10;;;;;;;2.85;2.22;;;23.60;66.00;;;;;;4897757;29;20114;-76
2023/08/25 01:58:36;;;;;;;3.05;2.40;;;23.60;66.00;;;;;;4882138;29;20036;-74
2023/08/25 02:01:03;;;;;;;3.10;2.28;;;23.60;66.00;;;;;;4898304;29;20040;-74
2023/08/25 02:03:30;;;;;;;2.33;2.03;;;23.60;66.00;;;;;;4897817;29;20048;-75
2023/08/25 02:05:55;;;;;;;2.65;2.15;;;23.60;66.10;;;;;;4897602;29;20040;-75
2023/08/25 02:08:21;;;;;;;3.83;2.33;;;23.60;66.10;;;;;;4897507;29;20053;-75
2023/08/25 02:10:47;;;;;;;3.15;2.55;;;23.60;66.10;;;;;;4898268;29;20048;-74
2023/08/25 02:13:15;;;;;;;3.05;2.45;;;23.60;66.10;;;;;;4897307;29;20111;-75
2023/08/25 02:15:46;;;;;;;3.22;2.55;;;23.60;66.20;;;;;;4882041;29;20394;-75
2023/08/25 02:18:12;;;;;;;2.65;2.22;;;23.60;66.20;;;;;;4897485;29;20043;-75
2023/08/25 02:20:41;;;;;;;3.85;2.42;;;23.50;66.10;;;;;;4898061;29;20040;-75
2023/08/25 02:23:08;;;;;;;3.35;2.67;;;23.50;66.20;;;;;;4897317;29;20037;-75
2023/08/25 02:25:34;;;;;;;2.92;2.33;;;23.50;66.20;;;;;;4881861;29;20438;-75
2023/08/25 02:28:00;;;;;;;3.10;2.40;;;23.50;66.20;;;;;;4897354;29;20032;-76
2023/08/25 02:30:26;;;;;;;3.55;2.42;;;23.50;66.20;;;;;;4881918;29;20466;-75
2023/08/25 02:32:52;;;;;;;3.58;2.80;;;23.50;66.20;;;;;;4897284;29;20033;-74
2023/08/25 02:35:17;;;;;;;3.28;2.53;;;23.50;66.30;;;;;;4898434;29;20032;-75
2023/08/25 02:38:05;;;;;;;3.40;2.58;;;23.50;66.30;;;;;;4897466;29;20032;-74
2023/08/25 02:40:31;;;;;;;3.33;2.63;;;23.50;66.40;;;;;;4897847;29;20050;-75
2023/08/25 02:43:00;;;;;;;2.63;2.38;;;23.50;66.30;;;;;;4897114;29;20040;-75
2023/08/25 02:45:26;;;;;;;2.80;2.33;;;23.40;66.30;;;;;;4912933;29;20035;-75
2023/08/25 02:47:53;;;;;;;3.33;2.80;;;23.40;66.40;;;;;;4897295;29;20522;-75
2023/08/25 02:50:19;;;;;;;3.05;2.42;;;23.50;66.40;;;;;;4881509;29;20379;-74
2023/08/25 02:52:47;;;;;;;2.88;2.30;;;23.40;66.40;;;;;;4899546;29;20028;-75
2023/08/25 02:55:19;;;;;;;2.85;2.22;;;23.40;66.40;;;;;;4885614;29;20041;-75
2023/08/25 02:57:46;;;;;;;2.90;2.40;;;23.40;66.50;;;;;;4901256;29;20033;-74
2023/08/25 03:00:14;;;;;;;4.28;2.88;;;23.40;66.40;;;;;;4900790;29;20390;-75
2023/08/25 03:02:40;;;;;;;4.25;3.05;;;23.40;66.50;;;;;;4885183;29;20044;-75
2023/08/25 03:05:06;;;;;;;3.70;2.92;;;23.40;66.50;;;;;;4901716;29;20067;-75
2023/08/25 03:07:33;;;;;;;3.10;2.45;;;23.40;66.50;;;;;;4884918;29;20493;-75
2023/08/25 03:09:59;;;;;;;3.63;2.80;;;23.40;66.50;;;;;;4917111;29;20131;-74
2023/08/25 03:12:26;;;;;;;3.55;2.60;;;23.40;66.50;;;;;;4900574;29;20127;-74
2023/08/25 03:14:53;;;;;;;3.17;2.63;;;23.30;66.50;;;;;;4900287;29;20085;-74
2023/08/25 03:17:19;;;;;;;3.10;2.60;;;23.30;66.50;;;;;;4902284;29;20040;-75
2023/08/25 03:19:44;;;;;;;3.30;2.53;;;23.30;66.50;;;;;;4900518;29;20048;-75
2023/08/25 03:22:11;;;;;;;3.88;2.97;;;23.30;66.50;;;;;;4900451;29;20043;-76
2023/08/25 03:24:37;;;;;;;3.65;2.78;;;23.30;66.60;;;;;;4901207;29;20068;-74
2023/08/25 03:27:03;;;;;;;3.88;2.70;;;23.30;66.50;;;;;;4916743;29;20063;-75
2023/08/25 03:29:31;;;;;;;4.32;3.00;;;23.30;66.60;;;;;;4900295;29;20482;-75
2023/08/25 03:31:57;;;;;;;3.22;2.47;;;23.30;66.60;;;;;;4885778;29;20040;-75
2023/08/25 03:34:23;;;;;;;3.88;2.60;;;23.30;66.60;;;;;;4901572;29;20045;-75
2023/08/25 03:36:49;;;;;;;3.55;2.67;;;23.30;66.60;;;;;;4901033;29;20083;-75
2023/08/25 03:39:16;;;;;;;3.38;2.60;;;23.30;66.60;;;;;;4900385;29;20041;-76
2023/08/25 03:41:42;;;;;;;2.78;2.45;;;23.30;66.60;;;;;;4900225;29;20055;-75
2023/08/25 03:44:08;;;;;;;3.88;2.80;;;23.30;66.60;;;;;;4915938;29;20042;-74
2023/08/25 03:46:36;;;;;;;3.53;2.63;;;23.30;66.60;;;;;;4900067;29;20039;-74
2023/08/25 03:49:02;;;;;;;3.08;2.42;;;23.30;66.60;;;;;;4900263;29;20040;-74
2023/08/25 03:51:28;;;;;;;2.95;2.60;;;23.30;66.70;;;;;;4900189;29;20036;-75
2023/08/25 03:53:54;;;;;;;3.83;2.70;;;23.30;66.70;;;;;;4900700;29;20029;-75
2023/08/25 03:56:20;;;;;;;3.72;3.00;;;23.30;66.70;;;;;;4869615;29;20048;-76
2023/08/25 03:58:46;;;;;;;2.97;2.42;;;23.30;66.70;;;;;;4900041;29;20505;-75
2023/08/25 04:01:12;;;;;;;3.78;2.83;;;23.30;66.70;;;;;;4915723;29;20039;-76
2023/08/25 04:03:39;;;;;;;3.65;2.80;;;23.20;66.60;;;;;;4898833;29;20036;-75
2023/08/25 04:06:06;;;;;;;3.67;3.03;;;23.20;66.70;;;;;;4900115;29;20385;-75
2023/08/25 04:08:32;;;;;;;3.83;2.80;;;23.20;66.70;;;;;;4899315;29;20052;-75
2023/08/25 04:10:57;;;;;;;2.92;2.60;;;23.20;66.70;;;;;;4900539;29;20144;-75
2023/08/25 04:13:23;;;;;;;2.85;2.45;;;23.20;66.70;;;;;;4915269;29;20064;-75
2023/08/25 04:15:59;;;;;;;3.42;2.80;;;23.20;66.70;;;;;;4899461;29;20029;-75
2023/08/25 04:18:26;;;;;;;4.13;2.75;;;23.20;66.80;;;;;;4899766;29;20047;-75
2023/08/25 04:20:52;;;;;;;3.28;2.65;;;23.20;66.70;;;;;;4899423;29;20066;-75
2023/08/25 04:23:17;;;;;;;3.90;2.97;;;23.20;66.80;;;;;;4883895;29;20466;-76
2023/08/25 04:25:43;;;;;;;3.33;2.80;;;23.20;66.70;;;;;;4900194;29;20470;-75
2023/08/25 04:28:09;;;;;;;3.97;2.88;;;23.20;66.70;;;;;;4883783;29;20032;-75
2023/08/25 04:30:35;;;;;;;4.18;3.40;;;23.20;66.70;;;;;;4900072;29;20052;-75
2023/08/25 04:33:07;;;;;;;4.30;3.10;;;23.20;66.80;;;;;;4899440;29;20040;-75
2023/08/25 04:35:35;;;;;;;4.07;3.10;;;23.20;66.80;;;;;;4899162;29;20043;-75
2023/08/25 04:38:01;;;;;;;3.70;2.78;;;23.20;66.80;;;;;;4884141;29;20390;-75
2023/08/25 04:40:26;;;;;;;3.35;2.90;;;23.20;66.80;;;;;;4899714;29;20040;-76
2023/08/25 04:42:53;;;;;;;4.22;2.92;;;23.20;66.90;;;;;;4899035;29;20067;-75
2023/08/25 04:45:19;;;;;;;4.38;2.90;;;23.10;66.80;;;;;;4900761;29;20037;-75
2023/08/25 04:47:45;;;;;;;3.90;2.83;;;23.10;66.90;;;;;;4898944;29;20037;-75
2023/08/25 04:50:11;;;;;;;3.20;2.67;;;23.10;67.50;;;;;;4898930;29;20036;-75
2023/08/25 04:52:38;;;;;;;4.15;3.10;;;23.10;66.80;;;;;;4898780;29;20112;-75
2023/08/25 04:55:05;;;;;;;3.30;2.72;;;23.10;66.80;;;;;;4899138;29;20037;-75
2023/08/25 04:57:31;;;;;;;3.92;3.03;;;23.10;66.90;;;;;;4899495;29;20033;-75
2023/08/25 04:59:58;;;;;;;4.28;3.03;;;23.10;66.90;;;;;;4898905;29;20036;-75
2023/08/25 05:02:27;;;;;;;3.95;3.40;;;23.10;66.80;;;;;;4898626;29;20127;-76
2023/08/25 05:04:52;;;;;;;3.33;2.67;;;23.10;66.80;;;;;;4914301;29;20482;-75
2023/08/25 05:07:19;;;;;;;3.90;2.97;;;23.10;66.80;;;;;;4898271;29;20070;-75
2023/08/25 05:09:45;;;;;;;3.85;2.85;;;23.10;66.90;;;;;;4914261;29;20047;-75
2023/08/25 05:12:11;;;;;;;3.90;3.00;;;23.10;66.90;;;;;;4898569;29;20077;-76
2023/08/25 05:14:37;;;;;;;3.80;2.78;;;23.10;66.90;;;;;;4914605;29;20472;-75
2023/08/25 05:17:02;;;;;;;3.00;2.70;;;23.10;66.90;;;;;;4898361;29;20049;-76
2023/08/25 05:19:29;;;;;;;3.90;3.10;;;23.10;66.90;;;;;;4913904;29;20039;-75
2023/08/25 05:21:55;;;;;;;4.00;3.05;;;23.10;66.90;;;;;;4883102;29;20040;-76
2023/08/25 05:24:24;;;;;;;3.63;3.03;;;23.10;66.90;;;;;;4899103;29;20371;-75
2023/08/25 05:26:53;;;;;;;3.65;3.03;;;23.10;66.90;;;;;;4899239;29;20036;-75
2023/08/25 05:29:25;;;;;;;4.03;3.05;;;23.10;66.90;;;;;;4898408;29;20054;-75
2023/08/25 05:31:53;;;;;;;4.05;3.20;;;23.10;66.90;;;;;;4898618;29;20084;-75
2023/08/25 05:34:28;;;;;;;3.95;3.17;;;23.10;66.80;;;;;;4899408;29;20033;-75
2023/08/25 05:36:56;;;;;;;3.25;2.72;;;23.10;66.90;;;;;;4898356;29;20076;-76
2023/08/25 05:39:23;;;;;;;3.95;2.90;;;23.10;66.90;;;;;;4898208;29;20049;-75
2023/08/25 05:41:49;;;;;;;4.28;3.20;;;23.10;66.90;;;;;;4898469;29;20047;-75
2023/08/25 05:44:15;;;;;;;3.90;3.25;;;23.00;66.80;;;;;;4882717;29;20096;-75
2023/08/25 05:46:41;;;;;;;3.75;2.90;;;23.10;66.90;;;;;;4898058;29;20037;-76
2023/08/25 05:49:06;;;;;;;3.53;2.90;;;23.10;66.90;;;;;;4898138;29;20036;-76
2023/08/25 05:51:32;;;;;;;4.80;3.00;;;23.10;66.90;;;;;;4897496;29;20037;-75
2023/08/25 05:53:58;;;;;;;3.92;3.00;;;23.10;66.90;;;;;;4898024;29;20039;-75
2023/08/25 05:56:24;;;;;;;3.70;3.00;;;23.10;66.90;;;;;;4898725;29;20044;-75
2023/08/25 05:58:49;;;;;;;3.92;3.38;;;23.10;66.90;;;;;;4898557;29;20153;-74
2023/08/25 06:01:15;;;;;;;4.28;3.00;;;23.10;66.90;;;;;;4882175;29;20037;-76
2023/08/25 06:03:41;;;;;;;4.35;3.35;;;23.10;66.90;;;;;;4913430;29;20037;-75
2023/08/25 06:06:07;;;;;;;4.28;3.38;;;23.10;66.90;;;;;;4881913;29;20036;-76
2023/08/25 06:08:32;;;;;;;4.45;3.35;;;23.10;66.90;;;;;;4897398;29;20420;-76
2023/08/25 06:10:58;;;;;;;4.03;3.17;;;23.10;66.90;;;;;;4913484;29;20478;-76
2023/08/25 06:13:24;;;;;;;4.10;3.30;;;23.10;67.00;;;;;;4899172;29;20040;-75
2023/08/25 06:15:50;;;;;;;3.53;2.92;;;23.10;66.90;;;;;;4913300;29;20036;-75
2023/08/25 06:18:16;;;;;;;4.78;3.60;;;23.10;66.90;;;;;;4897376;29;20041;-75
2023/08/25 06:20:42;;;;;;;4.00;3.20;;;23.10;66.90;;;;;;4897867;29;20045;-76
2023/08/25 06:23:08;;;;;;;3.88;2.72;;;23.10;67.00;;;;;;4912921;29;20133;-76
2023/08/25 06:25:36;;;;;;;3.30;2.53;;;23.10;67.00;;;;;;4897045;29;20036;-76
2023/08/25 06:28:02;;;;;;;3.92;3.15;;;23.10;67.10;;;;;;4896816;29;20462;-75
2023/08/25 06:30:29;;;;;;;4.70;2.83;;;23.10;67.00;;;;;;4898774;29;20040;-77
2023/08/25 06:32:55;;;;;;;3.03;2.63;;;23.10;67.00;;;;;;4898540;29;20044;-75
2023/08/25 06:35:22;;;;;;;3.80;2.83;;;23.10;67.00;;;;;;4913346;29;20029;-75
2023/08/25 06:37:49;;;;;;;3.47;2.65;;;23.10;67.00;;;;;;4898130;29;20040;-76
2023/08/25 06:40:15;;;;;;;3.53;2.78;;;23.10;67.00;;;;;;4898031;29;20041;-75
2023/08/25 06:42:41;;;;;;;4.00;3.00;;;23.10;67.00;;;;;;4897076;29;20037;-76
2023/08/25 06:45:07;;;;;;;3.67;2.80;;;23.20;67.10;;;;;;4898662;29;20041;-75
2023/08/25 06:47:34;;;;;;;3.80;3.10;;;23.10;67.00;;;;;;4897725;29;20508;-76
2023/08/25 06:50:05;;;;;;;3.25;2.72;;;23.20;67.10;;;;;;4896653;29;20378;-76
2023/08/25 06:52:32;;;;;;;3.45;2.80;;;23.20;67.10;;;;;;4896797;29;20073;-75
2023/08/25 06:54:58;;;;;;;4.55;3.13;;;23.20;67.10;;;;;;4898275;29;20040;-75
2023/08/25 06:57:24;;;;;;;3.20;2.38;;;23.20;67.70;;;;;;4898515;29;20172;-76
2023/08/25 06:59:50;;;;;;;4.15;3.25;;;23.10;67.00;;;;;;4912685;29;20120;-75
2023/08/25 07:02:16;;;;;;;3.47;2.75;;;23.20;67.10;;;;;;4898253;29;20040;-76
2023/08/25 07:04:42;;;;;;;3.65;2.88;;;23.20;67.10;;;;;;4898648;29;20100;-76
2023/08/25 07:07:08;;;;;;;3.80;2.95;;;23.20;67.10;;;;;;4897939;29;20037;-75
2023/08/25 07:09:35;;;;;;;3.67;2.90;;;23.20;67.10;;;;;;4896642;29;20060;-76
2023/08/25 07:12:00;;;;;;;3.10;2.63;;;23.20;67.10;;;;;;4896824;29;20112;-75
2023/08/25 07:14:30;;;;;;;4.07;3.17;;;23.20;67.10;;;;;;4912681;29;20397;-75
2023/08/25 07:16:56;;;;;;;3.33;2.67;;;23.20;67.10;;;;;;4913111;29;20033;-75
2023/08/25 07:19:22;;;;;;;4.15;3.22;;;23.20;67.10;;;;;;4897969;29;20041;-75
2023/08/25 07:21:48;;;;;;;4.50;3.38;;;23.20;67.10;;;;;;4913337;29;20359;-75
2023/08/25 07:24:13;;;;;;;4.47;3.53;;;23.20;67.10;;;;;;4898262;29;20100;-75
2023/08/25 07:26:39;;;;;;;4.50;3.30;;;23.20;67.70;;;;;;4897123;29;20502;-76
2023/08/25 07:29:05;;;;;;;4.35;3.03;;;23.20;67.00;;;;;;4896651;29;20036;-75
2023/08/25 07:31:31;;;;;;;4.75;3.35;;;23.20;67.10;;;;;;4898234;29;20048;-75
2023/08/25 07:33:57;;;;;;;4.78;3.03;;;23.20;67.10;;;;;;4898013;29;20037;-76
2023/08/25 07:36:24;;;;;;;4.32;3.15;;;23.20;67.10;;;;;;4912707;29;20045;-75
2023/08/25 07:38:50;;;;;;;4.32;3.13;;;23.20;67.10;;;;;;4900315;29;20120;-75
2023/08/25 07:41:20;;;;;;;3.63;3.03;;;23.20;67.10;;;;;;4901107;29;20123;-76
2023/08/25 07:43:46;;;;;;;4.32;3.28;;;23.20;67.10;;;;;;4900131;29;20037;-76
2023/08/25 07:46:12;;;;;;;4.18;3.22;;;23.20;67.10;;;;;;4884420;29;20124;-75
2023/08/25 07:48:37;;;;;;;4.93;3.80;;;23.20;67.10;;;;;;4900957;29;20120;-75
2023/08/25 07:51:04;;;;;;;4.75;3.47;;;23.20;67.10;;;;;;4900244;29;20119;-75
2023/08/25 07:53:31;;;;;;;4.50;3.65;;;23.20;67.10;;;;;;4915352;29;20041;-78
2023/08/25 07:55:57;;;;;;;4.65;3.67;;;23.20;67.20;;;;;;4885255;29;20343;-75
2023/08/25 07:58:23;;;;;;;4.90;3.70;;;23.20;67.20;;;;;;4901680;29;20367;-75
2023/08/25 08:00:49;;;;;;;4.80;3.55;;;23.20;67.20;;;;;;4900724;29;20043;-76
2023/08/25 08:03:15;;;;;;;4.80;3.67;;;23.20;67.20;;;;;;4915978;29;20048;-75
2023/08/25 08:05:42;;;;;;;4.90;3.70;;;23.20;67.10;;;;;;4899714;29;20401;-76
2023/08/25 08:08:09;;;;;;;4.40;3.28;;;23.20;67.20;;;;;;4899389;29;20120;-76
2023/08/25 08:10:36;;;;;;;5.32;3.42;;;23.20;67.10;;;;;;4900685;29;20442;-77
2023/08/25 08:13:03;;;;;;;4.53;3.50;;;23.20;67.20;;;;;;4900589;29;20402;-76
2023/08/25 08:15:30;;;;;;;4.55;3.63;;;23.20;67.20;;;;;;4899472;29;20446;-75
2023/08/25 08:17:56;;;;;;;4.07;3.25;;;23.20;67.20;;;;;;4900523;29;20055;-75
2023/08/25 08:20:23;;;;;;;4.65;3.15;;;23.20;67.20;;;;;;4899411;29;20048;-76
2023/08/25 08:22:49;;;;;;;4.95;4.15;;;23.30;67.30;;;;;;4899601;29;20039;-75
2023/08/25 08:25:14;;;;;;;4.90;3.03;;;23.20;67.20;;;;;;4900988;29;20470;-76
2023/08/25 08:27:41;;;;;;;4.35;3.30;;;23.20;67.30;;;;;;4915210;29;20145;-77
2023/08/25 08:30:09;;;;;;;4.15;3.33;;;23.20;67.30;;;;;;4900635;29;20040;-75
2023/08/25 08:32:36;;;;;;;4.60;3.47;;;23.20;67.30;;;;;;4900804;29;20039;-75
2023/08/25 08:35:08;;;;;;;5.18;3.38;;;23.20;67.20;;;;;;4900759;29;20035;-76
2023/08/25 08:37:35;;;;;;;4.40;3.25;;;23.30;67.20;;;;;;4915651;29;20064;-76
2023/08/25 08:40:01;;;;;;;4.38;3.70;;;23.20;67.20;;;;;;4899825;29;20436;-75
2023/08/25 08:42:28;;;;;;;3.95;3.28;;;23.20;67.30;;;;;;4883572;29;20041;-76
2023/08/25 08:44:56;;;;;;;4.75;3.78;;;23.20;67.30;;;;;;4898962;29;20037;-76
2023/08/25 08:47:22;;;;;;;4.95;3.65;;;23.20;67.30;;;;;;4899241;29;20032;-77
2023/08/25 08:49:50;;;;;;;4.85;3.72;;;23.20;67.20;;;;;;4898046;29;20041;-77
2023/08/25 08:52:17;;;;;;;5.07;3.50;;;23.20;67.20;;;;;;4899962;29;20071;-75
2023/08/25 08:54:44;;;;;;;4.13;3.13;;;23.30;67.20;;;;;;4898901;29;20056;-77
2023/08/25 08:57:11;;;;;;;4.70;3.70;;;23.30;67.20;;;;;;4883132;29;20041;-76
2023/08/25 08:59:37;;;;;;;4.18;3.47;;;23.30;67.20;;;;;;4900253;29;20052;-76
2023/08/25 09:02:04;;;;;;;5.10;3.50;;;23.30;67.20;;;;;;4914023;29;20043;-77
2023/08/25 09:04:30;;;;;;;4.60;3.75;;;23.30;67.20;;;;;;4898452;29;20043;-76
2023/08/25 09:06:58;;;;;;;5.90;4.40;;;23.30;67.90;;;;;;4898519;29;20127;-76
2023/08/25 09:09:24;;;;;;;5.10;3.97;;;23.30;67.30;;;;;;4898514;29;20120;-76
2023/08/25 09:11:50;;;;;;;5.43;3.95;;;23.30;67.30;;;;;;4914081;29;20528;-76
2023/08/25 09:14:27;;;;;;;5.10;3.80;;;23.30;67.30;;;;;;4898267;29;20037;-76
2023/08/25 09:16:59;;;;;;;5.10;3.97;;;23.30;67.40;;;;;;4898129;29;20123;-76
2023/08/25 09:19:28;;;;;;;4.90;3.90;;;23.30;67.30;;;;;;4883196;29;20040;-76
2023/08/25 09:21:53;;;;;;;5.32;4.13;;;23.30;67.40;;;;;;4899903;29;20032;-76
2023/08/25 09:24:21;;;;;;;4.95;3.92;;;23.20;67.30;;;;;;4898030;29;20040;-76
2023/08/25 09:26:48;;;;;;;4.72;4.05;;;23.30;67.50;;;;;;4899107;29;20039;-77
2023/08/25 09:29:14;;;;;;;4.68;3.75;;;23.30;67.50;;;;;;4898124;29;20025;-76
2023/08/25 09:31:40;;;;;;;4.55;3.50;;;23.20;67.50;;;;;;4898191;29;20448;-76
2023/08/25 09:34:08;;;;;;;5.40;4.53;;;23.20;67.60;;;;;;4898126;29;20041;-77
2023/08/25 09:36:33;;;;;;;4.53;3.55;;;23.20;67.70;;;;;;4882625;29;20028;-76
2023/08/25 09:39:02;;;;;;;4.72;3.60;;;23.20;67.70;;;;;;4899232;29;20451;-76
2023/08/25 09:41:29;;;;;;;4.55;3.63;;;23.20;67.70;;;;;;4883439;29;20059;-76
2023/08/25 09:44:02;;;;;;;4.80;3.75;;;23.20;67.70;;;;;;4898571;29;20045;-76
2023/08/25 09:46:32;;;;;;;4.57;3.63;;;23.20;67.70;;;;;;4898690;29;20037;-76
2023/08/25 09:49:02;;;;;;;4.50;3.72;;;23.30;67.80;;;;;;4898852;29;20032;-76
2023/08/25 09:51:41;;;;;;;4.57;3.20;;;23.20;67.70;;;;;;4913981;29;20503;-76
2023/08/25 09:54:15;;;;;;;4.57;3.53;;;23.20;67.80;;;;;;4899851;29;20035;-76
2023/08/25 09:56:43;;;;;;;4.53;3.13;;;23.20;67.80;;;;;;4913869;29;20100;-77
2023/08/25 09:59:10;;;;;;;4.70;3.33;;;23.30;67.80;;;;;;4897914;29;20040;-76
2023/08/25 10:01:37;;;;;;;4.38;3.45;;;23.30;67.80;;;;;;4896506;29;20116;-76
2023/08/25 10:04:04;;;;;;;4.60;3.55;;;23.30;67.80;;;;;;4882271;29;20466;-78
2023/08/25 10:06:32;;;;;;;4.20;3.00;;;23.30;67.80;;;;;;4899097;29;20116;-76
2023/08/25 10:09:01;;;;;;;4.20;2.95;;;23.30;67.80;;;;;;4898891;29;20415;-76
2023/08/25 10:11:29;;;;;;;4.10;2.83;;;23.30;67.80;;;;;;4898757;29;20037;-77
2023/08/25 10:13:58;;;;;;;3.25;2.63;;;23.30;67.80;;;;;;4897463;29;20025;-76
2023/08/25 10:16:28;;;;;;;3.67;3.15;;;23.30;67.70;;;;;;4897745;29;20434;-76
2023/08/25 10:18:58;;;;;;;3.88;3.13;;;23.30;67.80;;;;;;4897463;29;20406;-76
2023/08/25 10:21:25;;;;;;;3.65;3.00;;;23.30;67.80;;;;;;4898250;29;20482;-73
2023/08/25 10:23:53;;;;;;;3.47;2.60;;;23.30;67.90;;;;;;4898638;29;20438;-76
2023/08/25 10:26:20;;;;;;;3.00;2.42;;;23.30;68.00;;;;;;4898077;29;20032;-76
2023/08/25 10:28:46;;;;;;;3.50;2.55;;;23.30;68.00;;;;;;4897259;29;20032;-76
2023/08/25 10:31:13;;;;;;;4.22;2.97;;;23.30;68.00;;;;;;4897185;29;20494;-78
2023/08/25 10:33:50;;;;;;;2.70;2.25;;;23.30;68.00;;;;;;4899147;29;20052;-75
2023/08/25 10:36:20;;;;;;;3.40;2.47;;;23.30;68.00;;;;;;4898357;29;20039;-76
2023/08/25 10:38:52;;;;;;;3.57;2.83;;;23.30;68.00;;;;;;4898396;29;20033;-75
2023/08/25 10:41:19;;;;;;;3.28;2.40;;;23.30;68.00;;;;;;4897102;29;20111;-76
2023/08/25 10:43:53;;;;;;;3.20;2.65;;;23.30;68.00;;;;;;4897215;29;20029;-76
2023/08/25 10:46:25;;;;;;;2.72;2.30;;;23.30;68.10;;;;;;4898887;29;20037;-76
2023/08/25 10:49:12;;;;;;;3.22;2.40;;;23.30;68.10;;;;;;4897819;29;20025;-76
2023/08/25 10:51:38;;;;;;;2.90;2.22;;;23.30;68.10;;;;;;4898388;29;20100;-76
2023/08/25 10:54:04;;;;;;;2.75;2.35;;;23.30;68.00;;;;;;4897144;29;20037;-76
2023/08/25 10:56:30;;;;;;;3.25;2.33;;;23.40;68.00;;;;;;4913217;29;20462;-76
2023/08/25 10:59:03;;;;;;;3.33;2.25;;;23.40;68.00;;;;;;4898477;29;20462;-76
2023/08/25 11:01:38;;;;;;;2.65;2.05;;;23.40;68.10;;;;;;4881591;29;20396;-76
2023/08/25 11:04:08;;;;;;;3.38;2.10;;;23.40;68.00;;;;;;4912527;29;20457;-76
2023/08/25 11:06:48;;;;;;;2.78;2.10;;;23.40;68.00;;;;;;4898517;29;20037;-76
2023/08/25 11:09:23;;;;;;;2.53;1.95;;;23.50;68.00;;;;;;4896752;29;20109;-76
2023/08/25 11:12:00;;;;;;;3.13;2.20;;;23.50;68.00;;;;;;4897952;29;20028;-76
2023/08/25 11:14:28;;;;;;;2.85;2.20;;;23.50;67.90;;;;;;4900747;29;20108;-77
2023/08/25 11:16:56;;;;;;;2.30;1.83;;;23.50;67.80;;;;;;4900739;29;20059;-76
2023/08/25 11:19:24;;;;;;;2.38;1.88;;;23.50;67.80;;;;;;4901810;29;20045;-77
2023/08/25 11:22:08;;;;;;;2.42;1.70;;;23.60;67.80;;;;;;4900469;29;20052;-77
2023/08/25 11:24:34;;;;;;;2.28;1.75;;;23.60;67.90;;;;;;4900938;29;20129;-77
2023/08/25 11:27:09;;;;;;;2.17;1.75;;;23.60;68.30;;;;;;4901321;29;20470;-77
2023/08/25 11:29:34;;;;;;;2.22;1.80;;;23.60;67.70;;;;;;4900400;29;20397;-77
2023/08/25 11:32:02;;;;;;;2.22;1.70;;;23.70;68.30;;;;;;4901405;29;20036;-77
2023/08/25 11:34:32;;;;;;;1.88;1.63;;;23.70;67.70;;;;;;4884688;29;20367;-77
2023/08/25 11:36:58;;;;;;;2.00;1.60;;;23.70;67.70;;;;;;4916585;29;20107;-77
2023/08/25 11:39:24;;;;;;;2.75;1.90;;;23.70;67.70;;;;;;4900276;29;20045;-76
2023/08/25 11:41:56;;;;;;;1.63;1.50;;;23.70;67.70;;;;;;4900310;29;20527;-76
2023/08/25 11:44:23;;;;;;;2.10;1.60;;;23.70;67.70;;;;;;4900138;29;20032;-76
2023/08/25 11:46:50;;;;;;;2.60;1.75;;;23.70;67.70;;;;;;4901125;29;20029;-76
2023/08/25 11:49:17;;;;;;;2.38;2.10;;;23.70;67.70;;;;;;4901521;29;20041;-76
2023/08/25 11:51:44;;;;;;;2.53;2.00;;;23.80;67.70;;;;;;4899667;29;20039;-77
2023/08/25 11:54:10;;;;;;;2.50;1.80;;;23.80;67.70;;;;;;4901747;29;20043;-76
2023/08/25 11:56:36;;;;;;;3.20;2.00;;;23.80;67.70;;;;;;4884434;29;20044;-76
2023/08/25 11:59:02;;;;;;;2.10;1.90;;;23.80;67.60;;;;;;4899668;29;20029;-76
2023/08/25 12:01:32;;;;;;;2.88;2.10;;;23.80;67.60;;;;;;4901196;29;20045;-76
2023/08/25 12:03:59;;;;;;;1.70;1.60;;;23.80;67.70;;;;;;4899869;29;20037;-77
2023/08/25 12:06:25;;;;;;;2.13;1.70;;;23.80;67.60;;;;;;4901408;29;20060;-76
2023/08/25 12:08:51;;;;;;;2.53;1.88;;;23.80;67.60;;;;;;4899500;29;20414;-77
2023/08/25 12:11:16;;;;;;;2.50;1.90;;;23.80;67.60;;;;;;4901219;29;20116;-76
2023/08/25 12:13:46;;;;;;;2.30;1.73;;;23.90;67.70;;;;;;4884342;29;20033;-76
2023/08/25 12:16:13;;;;;;;3.00;2.35;;;23.90;67.70;;;;;;4901068;29;20032;-76
2023/08/25 12:18:41;;;;;;;2.72;2.05;;;23.90;67.70;;;;;;4899708;29;20041;-76
2023/08/25 12:21:07;;;;;;;2.15;1.80;;;23.90;67.70;;;;;;4900668;29;20045;-76
2023/08/25 12:23:38;;;;;;;2.00;1.80;;;23.90;67.70;;;;;;4900959;29;20032;-76
2023/08/25 12:26:08;;;;;;;1.95;1.70;;;23.90;67.80;;;;;;4899575;29;20037;-76
2023/08/25 12:28:35;;;;;;;2.42;1.75;;;23.90;67.70;;;;;;4900686;29;20039;-76
2023/08/25 12:31:01;;;;;;;2.47;1.92;;;23.90;67.70;;;;;;4899280;29;20059;-76
2023/08/25 12:33:31;;;;;;;2.40;2.00;;;24.00;67.80;;;;;;4899023;29;20031;-76
2023/08/25 12:36:00;;;;;;;2.03;1.70;;;24.00;67.90;;;;;;4899567;29;20040;-76
2023/08/25 12:38:26;;;;;;;2.20;1.90;;;24.00;67.80;;;;;;4900027;29;20024;-76
2023/08/25 12:40:52;;;;;;;2.40;2.15;;;24.00;67.80;;;;;;4900097;29;20131;-76
2023/08/25 12:43:19;;;;;;;2.08;1.80;;;23.90;67.80;;;;;;4899388;29;20032;-76
2023/08/25 12:45:46;;;;;;;2.42;2.03;;;24.00;67.80;;;;;;4914828;29;20504;-76
2023/08/25 12:48:12;;;;;;;3.45;2.22;;;24.00;67.80;;;;;;4900036;29;20470;-76
2023/08/25 12:50:38;;;;;;;2.15;1.92;;;24.00;67.80;;;;;;4899703;29;20047;-76